KSLK 050755Z 0508/0606 00000KT P6SM SCT025
TEMPO 0508/0510 BKN022
FM051400 04006KT P6SM FEW025
From batch tds/tafs/production/2024/2/5/h08_m00_tafs.cache.xml.gz
Issued (18 days ago)
Forecasts
0508/0514 VRB00KT 6+SM SCT2500

---
fcst_time_to: '2024-02-05T14:00:00Z'
sky_condition:
- sky_cover: SCT
  cloud_base_ft_agl: '2500'
wind_speed_kt: '0'
fcst_time_from: '2024-02-05T08:00:00Z'
wind_dir_degrees: '0'
visibility_statute_mi: 6+

TEMPO 0508/0510 BKN2200

---
fcst_time_to: '2024-02-05T10:00:00Z'
sky_condition:
- sky_cover: BKN
  cloud_base_ft_agl: '2200'
fcst_time_from: '2024-02-05T08:00:00Z'
change_indicator: TEMPO

FM051400 4006KT 6+SM FEW2500

---
fcst_time_to: '2024-02-06T06:00:00Z'
sky_condition:
- sky_cover: FEW
  cloud_base_ft_agl: '2500'
wind_speed_kt: '6'
fcst_time_from: '2024-02-05T14:00:00Z'
change_indicator: FM
wind_dir_degrees: '40'
visibility_statute_mi: 6+

talk